sensor_id;sensor_type;location;lat;lon;timestamp;P1;durP1;ratioP1;P2;durP2;ratioP2
15655;SDS011;7928;43.614;1.456;2023-03-12T00:02:21;3.03;;;0.83;;
15655;SDS011;7928;43.614;1.456;2023-03-12T00:04:48;1.10;;;0.70;;
15655;SDS011;7928;43.614;1.456;2023-03-12T00:07:15;0.97;;;0.77;;
15655;SDS011;7928;43.614;1.456;2023-03-12T00:09:42;1.90;;;1.10;;
15655;SDS011;7928;43.614;1.456;2023-03-12T00:12:11;1.00;;;0.80;;
15655;SDS011;7928;43.614;1.456;2023-03-12T00:14:38;2.80;;;1.17;;
15655;SDS011;7928;43.614;1.456;2023-03-12T00:17:05;3.13;;;2.33;;
15655;SDS011;7928;43.614;1.456;2023-03-12T00:19:32;2.30;;;1.10;;
15655;SDS011;7928;43.614;1.456;2023-03-12T00:21:59;1.27;;;0.97;;
15655;SDS011;7928;43.614;1.456;2023-03-12T00:24:26;1.57;;;0.93;;
15655;SDS011;7928;43.614;1.456;2023-03-12T00:26:53;1.23;;;1.00;;
15655;SDS011;7928;43.614;1.456;2023-03-12T00:29:21;1.47;;;0.97;;
15655;SDS011;7928;43.614;1.456;2023-03-12T00:31:48;1.40;;;0.77;;
15655;SDS011;7928;43.614;1.456;2023-03-12T00:34:15;1.93;;;1.37;;
15655;SDS011;7928;43.614;1.456;2023-03-12T00:36:42;1.23;;;0.70;;
15655;SDS011;7928;43.614;1.456;2023-03-12T00:39:09;0.90;;;0.70;;
15655;SDS011;7928;43.614;1.456;2023-03-12T00:41:36;1.70;;;0.70;;
15655;SDS011;7928;43.614;1.456;2023-03-12T00:44:03;1.30;;;0.90;;
15655;SDS011;7928;43.614;1.456;2023-03-12T00:46:32;0.70;;;0.50;;
15655;SDS011;7928;43.614;1.456;2023-03-12T00:48:59;1.17;;;0.77;;
15655;SDS011;7928;43.614;1.456;2023-03-12T00:51:26;0.63;;;0.50;;
15655;SDS011;7928;43.614;1.456;2023-03-12T00:53:53;1.23;;;0.83;;
15655;SDS011;7928;43.614;1.456;2023-03-12T00:56:20;1.43;;;0.80;;
15655;SDS011;7928;43.614;1.456;2023-03-12T00:58:47;2.00;;;1.00;;
15655;SDS011;7928;43.614;1.456;2023-03-12T01:01:14;1.47;;;1.27;;
15655;SDS011;7928;43.614;1.456;2023-03-12T01:03:43;3.80;;;0.77;;
15655;SDS011;7928;43.614;1.456;2023-03-12T01:06:10;1.03;;;0.87;;
15655;SDS011;7928;43.614;1.456;2023-03-12T01:08:37;3.10;;;2.77;;
15655;SDS011;7928;43.614;1.456;2023-03-12T01:11:04;1.50;;;0.43;;
15655;SDS011;7928;43.614;1.456;2023-03-12T01:13:31;0.60;;;0.50;;
15655;SDS011;7928;43.614;1.456;2023-03-12T01:15:58;1.03;;;0.47;;
15655;SDS011;7928;43.614;1.456;2023-03-12T01:18:25;4.57;;;0.97;;
15655;SDS011;7928;43.614;1.456;2023-03-12T01:20:53;2.03;;;0.57;;
15655;SDS011;7928;43.614;1.456;2023-03-12T01:23:20;2.80;;;0.80;;
15655;SDS011;7928;43.614;1.456;2023-03-12T01:25:47;1.07;;;0.60;;
15655;SDS011;7928;43.614;1.456;2023-03-12T01:28:16;1.83;;;0.53;;
15655;SDS011;7928;43.614;1.456;2023-03-12T01:30:43;1.27;;;0.57;;
15655;SDS011;7928;43.614;1.456;2023-03-12T01:33:11;1.23;;;0.50;;
15655;SDS011;7928;43.614;1.456;2023-03-12T01:35:39;0.60;;;0.40;;
15655;SDS011;7928;43.614;1.456;2023-03-12T01:38:08;0.77;;;0.40;;
15655;SDS011;7928;43.614;1.456;2023-03-12T01:40:38;0.63;;;0.40;;
15655;SDS011;7928;43.614;1.456;2023-03-12T01:43:25;1.70;;;0.30;;
15655;SDS011;7928;43.614;1.456;2023-03-12T01:46:05;0.80;;;0.50;;
15655;SDS011;7928;43.614;1.456;2023-03-12T01:48:47;0.30;;;0.20;;
15655;SDS011;7928;43.614;1.456;2023-03-12T01:51:16;1.37;;;0.50;;
15655;SDS011;7928;43.614;1.456;2023-03-12T01:53:47;1.77;;;0.40;;
15655;SDS011;7928;43.614;1.456;2023-03-12T01:56:16;0.63;;;0.20;;
15655;SDS011;7928;43.614;1.456;2023-03-12T01:58:49;0.80;;;0.60;;
15655;SDS011;7928;43.614;1.456;2023-03-12T02:01:18;0.70;;;0.50;;
15655;SDS011;7928;43.614;1.456;2023-03-12T02:03:47;1.43;;;0.97;;
15655;SDS011;7928;43.614;1.456;2023-03-12T02:06:17;1.13;;;0.73;;
15655;SDS011;7928;43.614;1.456;2023-03-12T02:08:50;3.07;;;0.50;;
15655;SDS011;7928;43.614;1.456;2023-03-12T02:11:18;1.53;;;1.10;;
15655;SDS011;7928;43.614;1.456;2023-03-12T02:13:45;0.70;;;0.30;;
15655;SDS011;7928;43.614;1.456;2023-03-12T02:16:12;0.57;;;0.20;;
15655;SDS011;7928;43.614;1.456;2023-03-12T02:18:39;0.80;;;0.30;;
15655;SDS011;7928;43.614;1.456;2023-03-12T02:21:08;0.23;;;0.20;;
15655;SDS011;7928;43.614;1.456;2023-03-12T02:23:41;1.00;;;0.43;;
15655;SDS011;7928;43.614;1.456;2023-03-12T02:26:14;0.40;;;0.30;;
15655;SDS011;7928;43.614;1.456;2023-03-12T02:28:42;0.63;;;0.27;;
15655;SDS011;7928;43.614;1.456;2023-03-12T02:31:12;0.17;;;0.17;;
15655;SDS011;7928;43.614;1.456;2023-03-12T02:33:41;0.33;;;0.20;;
15655;SDS011;7928;43.614;1.456;2023-03-12T02:36:08;1.50;;;1.20;;
15655;SDS011;7928;43.614;1.456;2023-03-12T02:38:37;0.93;;;0.43;;
15655;SDS011;7928;43.614;1.456;2023-03-12T02:41:09;1.80;;;0.30;;
15655;SDS011;7928;43.614;1.456;2023-03-12T02:43:44;1.23;;;0.20;;
15655;SDS011;7928;43.614;1.456;2023-03-12T02:46:14;0.33;;;0.20;;
15655;SDS011;7928;43.614;1.456;2023-03-12T02:48:41;0.10;;;0.10;;
15655;SDS011;7928;43.614;1.456;2023-03-12T02:51:08;0.50;;;0.20;;
15655;SDS011;7928;43.614;1.456;2023-03-12T02:53:35;0.53;;;0.10;;
15655;SDS011;7928;43.614;1.456;2023-03-12T02:56:02;0.13;;;0.10;;
15655;SDS011;7928;43.614;1.456;2023-03-12T02:58:31;0.20;;;0.10;;
15655;SDS011;7928;43.614;1.456;2023-03-12T03:00:58;0.37;;;0.10;;
15655;SDS011;7928;43.614;1.456;2023-03-12T03:03:25;0.47;;;0.20;;
15655;SDS011;7928;43.614;1.456;2023-03-12T03:05:52;0.30;;;0.20;;
15655;SDS011;7928;43.614;1.456;2023-03-12T03:08:19;0.37;;;0.20;;
15655;SDS011;7928;43.614;1.456;2023-03-12T03:10:46;0.43;;;0.13;;
15655;SDS011;7928;43.614;1.456;2023-03-12T03:13:16;1.00;;;0.20;;
15655;SDS011;7928;43.614;1.456;2023-03-12T03:15:44;0.40;;;0.20;;
15655;SDS011;7928;43.614;1.456;2023-03-12T03:18:11;0.37;;;0.10;;
15655;SDS011;7928;43.614;1.456;2023-03-12T03:20:38;0.20;;;0.10;;
15655;SDS011;7928;43.614;1.456;2023-03-12T03:23:05;0.30;;;0.10;;
15655;SDS011;7928;43.614;1.456;2023-03-12T03:25:32;0.50;;;0.20;;
15655;SDS011;7928;43.614;1.456;2023-03-12T03:27:59;0.37;;;0.10;;
15655;SDS011;7928;43.614;1.456;2023-03-12T03:30:26;0.20;;;0.20;;
15655;SDS011;7928;43.614;1.456;2023-03-12T03:32:54;0.10;;;0.10;;
15655;SDS011;7928;43.614;1.456;2023-03-12T03:35:21;1.63;;;0.20;;
15655;SDS011;7928;43.614;1.456;2023-03-12T03:37:48;0.20;;;0.10;;
15655;SDS011;7928;43.614;1.456;2023-03-12T03:40:15;0.50;;;0.20;;
15655;SDS011;7928;43.614;1.456;2023-03-12T03:42:43;0.77;;;0.20;;
15655;SDS011;7928;43.614;1.456;2023-03-12T03:45:10;0.20;;;0.10;;
15655;SDS011;7928;43.614;1.456;2023-03-12T03:47:37;1.43;;;0.20;;
15655;SDS011;7928;43.614;1.456;2023-03-12T03:50:06;0.57;;;0.17;;
15655;SDS011;7928;43.614;1.456;2023-03-12T03:52:33;0.20;;;0.20;;
15655;SDS011;7928;43.614;1.456;2023-03-12T03:55:00;0.30;;;0.10;;
15655;SDS011;7928;43.614;1.456;2023-03-12T03:57:27;6.77;;;1.07;;
15655;SDS011;7928;43.614;1.456;2023-03-12T03:59:55;7.13;;;1.40;;
15655;SDS011;7928;43.614;1.456;2023-03-12T04:02:24;9.10;;;1.57;;
15655;SDS011;7928;43.614;1.456;2023-03-12T04:04:52;6.33;;;1.57;;
15655;SDS011;7928;43.614;1.456;2023-03-12T04:07:24;9.57;;;1.73;;
15655;SDS011;7928;43.614;1.456;2023-03-12T04:09:52;10.23;;;2.00;;
15655;SDS011;7928;43.614;1.456;2023-03-12T04:12:19;5.80;;;1.37;;
15655;SDS011;7928;43.614;1.456;2023-03-12T04:14:48;7.77;;;1.87;;
15655;SDS011;7928;43.614;1.456;2023-03-12T04:17:15;5.83;;;1.60;;
15655;SDS011;7928;43.614;1.456;2023-03-12T04:19:42;7.50;;;1.33;;
15655;SDS011;7928;43.614;1.456;2023-03-12T04:22:09;10.83;;;1.70;;
15655;SDS011;7928;43.614;1.456;2023-03-12T04:24:37;8.53;;;1.87;;
15655;SDS011;7928;43.614;1.456;2023-03-12T04:27:04;6.83;;;1.83;;
15655;SDS011;7928;43.614;1.456;2023-03-12T04:29:31;6.33;;;1.47;;
15655;SDS011;7928;43.614;1.456;2023-03-12T04:31:58;8.93;;;2.10;;
15655;SDS011;7928;43.614;1.456;2023-03-12T04:34:25;9.50;;;2.17;;
15655;SDS011;7928;43.614;1.456;2023-03-12T04:36:52;7.13;;;1.83;;
15655;SDS011;7928;43.614;1.456;2023-03-12T04:39:19;8.80;;;2.00;;
15655;SDS011;7928;43.614;1.456;2023-03-12T04:41:47;7.40;;;1.73;;
15655;SDS011;7928;43.614;1.456;2023-03-12T04:44:14;10.30;;;2.13;;
15655;SDS011;7928;43.614;1.456;2023-03-12T04:46:41;6.80;;;1.87;;
15655;SDS011;7928;43.614;1.456;2023-03-12T04:49:08;11.03;;;2.07;;
15655;SDS011;7928;43.614;1.456;2023-03-12T04:51:36;8.47;;;1.80;;
15655;SDS011;7928;43.614;1.456;2023-03-12T04:54:03;8.00;;;1.93;;
15655;SDS011;7928;43.614;1.456;2023-03-12T04:56:30;7.43;;;1.73;;
15655;SDS011;7928;43.614;1.456;2023-03-12T04:58:58;10.67;;;2.10;;
15655;SDS011;7928;43.614;1.456;2023-03-12T05:01:26;6.50;;;2.03;;
15655;SDS011;7928;43.614;1.456;2023-03-12T05:03:54;9.87;;;1.83;;
15655;SDS011;7928;43.614;1.456;2023-03-12T05:06:22;8.20;;;1.70;;
15655;SDS011;7928;43.614;1.456;2023-03-12T05:08:49;9.93;;;1.73;;
15655;SDS011;7928;43.614;1.456;2023-03-12T05:11:17;8.27;;;2.33;;
15655;SDS011;7928;43.614;1.456;2023-03-12T05:13:44;12.70;;;1.93;;
15655;SDS011;7928;43.614;1.456;2023-03-12T05:16:13;12.20;;;2.20;;
15655;SDS011;7928;43.614;1.456;2023-03-12T05:18:41;12.33;;;2.20;;
15655;SDS011;7928;43.614;1.456;2023-03-12T05:21:10;11.53;;;2.30;;
15655;SDS011;7928;43.614;1.456;2023-03-12T05:23:39;12.23;;;2.70;;
15655;SDS011;7928;43.614;1.456;2023-03-12T05:26:07;11.30;;;2.03;;
15655;SDS011;7928;43.614;1.456;2023-03-12T05:28:40;11.50;;;2.23;;
15655;SDS011;7928;43.614;1.456;2023-03-12T05:31:08;9.03;;;2.17;;
15655;SDS011;7928;43.614;1.456;2023-03-12T05:33:37;11.57;;;2.07;;
15655;SDS011;7928;43.614;1.456;2023-03-12T05:36:04;8.33;;;2.10;;
15655;SDS011;7928;43.614;1.456;2023-03-12T05:38:32;8.60;;;1.97;;
15655;SDS011;7928;43.614;1.456;2023-03-12T05:40:59;13.10;;;2.20;;
15655;SDS011;7928;43.614;1.456;2023-03-12T05:43:27;12.53;;;2.30;;
15655;SDS011;7928;43.614;1.456;2023-03-12T05:45:56;8.90;;;2.03;;
15655;SDS011;7928;43.614;1.456;2023-03-12T05:48:24;12.13;;;1.97;;
15655;SDS011;7928;43.614;1.456;2023-03-12T05:50:53;10.43;;;2.00;;
15655;SDS011;7928;43.614;1.456;2023-03-12T05:53:20;9.83;;;2.30;;
15655;SDS011;7928;43.614;1.456;2023-03-12T05:55:47;5.77;;;1.63;;
15655;SDS011;7928;43.614;1.456;2023-03-12T05:58:14;10.27;;;1.77;;
15655;SDS011;7928;43.614;1.456;2023-03-12T06:00:41;9.43;;;1.50;;
15655;SDS011;7928;43.614;1.456;2023-03-12T06:03:08;6.83;;;1.60;;
15655;SDS011;7928;43.614;1.456;2023-03-12T06:05:35;7.13;;;1.67;;
15655;SDS011;7928;43.614;1.456;2023-03-12T06:08:04;10.13;;;2.10;;
15655;SDS011;7928;43.614;1.456;2023-03-12T06:10:32;10.37;;;1.83;;
15655;SDS011;7928;43.614;1.456;2023-03-12T06:12:59;7.80;;;1.70;;
15655;SDS011;7928;43.614;1.456;2023-03-12T06:15:26;5.23;;;1.30;;
15655;SDS011;7928;43.614;1.456;2023-03-12T06:17:53;10.43;;;2.27;;
15655;SDS011;7928;43.614;1.456;2023-03-12T06:20:19;9.67;;;2.37;;
15655;SDS011;7928;43.614;1.456;2023-03-12T06:22:47;6.13;;;1.47;;
15655;SDS011;7928;43.614;1.456;2023-03-12T06:25:16;9.20;;;1.70;;
15655;SDS011;7928;43.614;1.456;2023-03-12T06:27:43;7.83;;;1.40;;
15655;SDS011;7928;43.614;1.456;2023-03-12T06:30:10;5.17;;;1.47;;
15655;SDS011;7928;43.614;1.456;2023-03-12T06:32:38;5.57;;;1.10;;
15655;SDS011;7928;43.614;1.456;2023-03-12T06:35:05;7.80;;;1.60;;
15655;SDS011;7928;43.614;1.456;2023-03-12T06:37:32;6.20;;;1.53;;
15655;SDS011;7928;43.614;1.456;2023-03-12T06:39:59;5.07;;;1.27;;
15655;SDS011;7928;43.614;1.456;2023-03-12T06:42:27;7.23;;;1.23;;
15655;SDS011;7928;43.614;1.456;2023-03-12T06:44:54;5.80;;;1.23;;
15655;SDS011;7928;43.614;1.456;2023-03-12T06:47:21;9.23;;;1.50;;
15655;SDS011;7928;43.614;1.456;2023-03-12T06:49:48;7.03;;;1.20;;
15655;SDS011;7928;43.614;1.456;2023-03-12T06:52:15;5.73;;;1.37;;
15655;SDS011;7928;43.614;1.456;2023-03-12T06:54:42;7.37;;;1.77;;
15655;SDS011;7928;43.614;1.456;2023-03-12T06:57:09;10.27;;;1.90;;
15655;SDS011;7928;43.614;1.456;2023-03-12T06:59:37;6.60;;;1.40;;
15655;SDS011;7928;43.614;1.456;2023-03-12T07:02:04;9.27;;;2.80;;
15655;SDS011;7928;43.614;1.456;2023-03-12T07:04:31;8.43;;;1.57;;
15655;SDS011;7928;43.614;1.456;2023-03-12T07:06:58;8.87;;;2.03;;
15655;SDS011;7928;43.614;1.456;2023-03-12T07:09:25;9.00;;;2.00;;
15655;SDS011;7928;43.614;1.456;2023-03-12T07:11:52;8.47;;;1.90;;
15655;SDS011;7928;43.614;1.456;2023-03-12T07:14:19;5.83;;;1.30;;
15655;SDS011;7928;43.614;1.456;2023-03-12T07:16:47;5.67;;;1.40;;
15655;SDS011;7928;43.614;1.456;2023-03-12T07:19:15;13.80;;;2.60;;
15655;SDS011;7928;43.614;1.456;2023-03-12T07:21:43;9.10;;;2.03;;
15655;SDS011;7928;43.614;1.456;2023-03-12T07:24:10;5.40;;;1.40;;
15655;SDS011;7928;43.614;1.456;2023-03-12T07:26:37;8.43;;;1.50;;
15655;SDS011;7928;43.614;1.456;2023-03-12T07:29:04;6.10;;;1.60;;
15655;SDS011;7928;43.614;1.456;2023-03-12T07:31:31;8.33;;;1.90;;
15655;SDS011;7928;43.614;1.456;2023-03-12T07:33:59;7.70;;;1.40;;
15655;SDS011;7928;43.614;1.456;2023-03-12T07:36:27;6.87;;;1.90;;
15655;SDS011;7928;43.614;1.456;2023-03-12T07:38:54;8.53;;;1.80;;
15655;SDS011;7928;43.614;1.456;2023-03-12T07:41:22;8.13;;;1.73;;
15655;SDS011;7928;43.614;1.456;2023-03-12T07:43:49;6.67;;;1.37;;
15655;SDS011;7928;43.614;1.456;2023-03-12T07:46:16;7.70;;;2.00;;
15655;SDS011;7928;43.614;1.456;2023-03-12T07:48:43;7.70;;;1.80;;
15655;SDS011;7928;43.614;1.456;2023-03-12T07:51:11;7.00;;;1.50;;
15655;SDS011;7928;43.614;1.456;2023-03-12T07:53:38;6.23;;;1.83;;
15655;SDS011;7928;43.614;1.456;2023-03-12T07:56:05;5.30;;;1.67;;
15655;SDS011;7928;43.614;1.456;2023-03-12T07:58:33;5.17;;;1.50;;
15655;SDS011;7928;43.614;1.456;2023-03-12T08:01:00;7.40;;;2.10;;
15655;SDS011;7928;43.614;1.456;2023-03-12T08:03:27;5.67;;;1.47;;
15655;SDS011;7928;43.614;1.456;2023-03-12T08:05:55;7.10;;;1.40;;
15655;SDS011;7928;43.614;1.456;2023-03-12T08:08:25;5.50;;;1.77;;
15655;SDS011;7928;43.614;1.456;2023-03-12T08:10:52;7.70;;;1.80;;
15655;SDS011;7928;43.614;1.456;2023-03-12T08:13:19;7.33;;;1.57;;
15655;SDS011;7928;43.614;1.456;2023-03-12T08:15:48;8.27;;;2.03;;
15655;SDS011;7928;43.614;1.456;2023-03-12T08:18:15;9.80;;;2.47;;
15655;SDS011;7928;43.614;1.456;2023-03-12T08:20:42;6.00;;;1.40;;
15655;SDS011;7928;43.614;1.456;2023-03-12T08:23:10;5.23;;;1.53;;
15655;SDS011;7928;43.614;1.456;2023-03-12T08:25:38;5.50;;;1.70;;
15655;SDS011;7928;43.614;1.456;2023-03-12T08:28:06;6.07;;;1.83;;
15655;SDS011;7928;43.614;1.456;2023-03-12T08:30:33;5.70;;;1.97;;
15655;SDS011;7928;43.614;1.456;2023-03-12T08:33:00;5.37;;;1.63;;
15655;SDS011;7928;43.614;1.456;2023-03-12T08:35:27;5.77;;;1.70;;
15655;SDS011;7928;43.614;1.456;2023-03-12T08:37:54;5.67;;;1.73;;
15655;SDS011;7928;43.614;1.456;2023-03-12T08:40:21;6.17;;;1.67;;
15655;SDS011;7928;43.614;1.456;2023-03-12T08:42:50;4.47;;;1.40;;
15655;SDS011;7928;43.614;1.456;2023-03-12T08:45:17;6.20;;;1.60;;
15655;SDS011;7928;43.614;1.456;2023-03-12T08:47:44;5.90;;;1.33;;
15655;SDS011;7928;43.614;1.456;2023-03-12T08:50:12;5.83;;;1.57;;
15655;SDS011;7928;43.614;1.456;2023-03-12T08:52:40;4.10;;;2.10;;
15655;SDS011;7928;43.614;1.456;2023-03-12T08:55:08;5.07;;;1.70;;
15655;SDS011;7928;43.614;1.456;2023-03-12T08:57:35;5.90;;;1.73;;
15655;SDS011;7928;43.614;1.456;2023-03-12T09:00:04;3.80;;;1.47;;
15655;SDS011;7928;43.614;1.456;2023-03-12T09:02:36;3.03;;;1.77;;
15655;SDS011;7928;43.614;1.456;2023-03-12T09:05:03;4.50;;;1.73;;
15655;SDS011;7928;43.614;1.456;2023-03-12T09:07:31;6.83;;;1.70;;
15655;SDS011;7928;43.614;1.456;2023-03-12T09:09:58;5.63;;;2.33;;
15655;SDS011;7928;43.614;1.456;2023-03-12T09:12:25;3.10;;;1.53;;
15655;SDS011;7928;43.614;1.456;2023-03-12T09:14:52;5.43;;;1.30;;
15655;SDS011;7928;43.614;1.456;2023-03-12T09:17:21;4.30;;;1.10;;
15655;SDS011;7928;43.614;1.456;2023-03-12T09:19:48;4.73;;;0.77;;
15655;SDS011;7928;43.614;1.456;2023-03-12T09:22:15;1.27;;;0.70;;
15655;SDS011;7928;43.614;1.456;2023-03-12T09:24:42;1.40;;;0.53;;
15655;SDS011;7928;43.614;1.456;2023-03-12T09:27:09;1.90;;;0.87;;
15655;SDS011;7928;43.614;1.456;2023-03-12T09:29:36;0.70;;;0.40;;
15655;SDS011;7928;43.614;1.456;2023-03-12T09:32:03;1.30;;;0.50;;
15655;SDS011;7928;43.614;1.456;2023-03-12T09:34:32;2.33;;;0.60;;
15655;SDS011;7928;43.614;1.456;2023-03-12T09:36:59;0.80;;;0.40;;
15655;SDS011;7928;43.614;1.456;2023-03-12T09:39:26;1.10;;;0.63;;
15655;SDS011;7928;43.614;1.456;2023-03-12T09:41:53;0.77;;;0.43;;
15655;SDS011;7928;43.614;1.456;2023-03-12T09:44:22;1.43;;;0.40;;
15655;SDS011;7928;43.614;1.456;2023-03-12T09:46:56;0.93;;;0.37;;
15655;SDS011;7928;43.614;1.456;2023-03-12T09:49:28;0.40;;;0.30;;
15655;SDS011;7928;43.614;1.456;2023-03-12T09:52:01;0.57;;;0.30;;
15655;SDS011;7928;43.614;1.456;2023-03-12T09:54:35;1.50;;;0.50;;
15655;SDS011;7928;43.614;1.456;2023-03-12T09:57:08;0.97;;;0.30;;
15655;SDS011;7928;43.614;1.456;2023-03-12T09:59:39;1.33;;;0.50;;
15655;SDS011;7928;43.614;1.456;2023-03-12T10:02:12;1.03;;;0.30;;
15655;SDS011;7928;43.614;1.456;2023-03-12T10:05:03;1.07;;;0.60;;
15655;SDS011;7928;43.614;1.456;2023-03-12T10:07:33;0.40;;;0.30;;
15655;SDS011;7928;43.614;1.456;2023-03-12T10:10:09;1.10;;;0.60;;
15655;SDS011;7928;43.614;1.456;2023-03-12T10:12:51;3.33;;;0.80;;
15655;SDS011;7928;43.614;1.456;2023-03-12T10:15:35;0.70;;;0.30;;
15655;SDS011;7928;43.614;1.456;2023-03-12T10:18:11;0.97;;;0.50;;
15655;SDS011;7928;43.614;1.456;2023-03-12T10:20:52;0.93;;;0.40;;
15655;SDS011;7928;43.614;1.456;2023-03-12T10:23:30;0.80;;;0.50;;
15655;SDS011;7928;43.614;1.456;2023-03-12T10:26:06;2.77;;;0.40;;
15655;SDS011;7928;43.614;1.456;2023-03-12T10:28:39;1.10;;;0.50;;
15655;SDS011;7928;43.614;1.456;2023-03-12T10:31:12;1.17;;;0.30;;
15655;SDS011;7928;43.614;1.456;2023-03-12T10:33:46;1.00;;;0.50;;
15655;SDS011;7928;43.614;1.456;2023-03-12T10:36:18;0.97;;;0.30;;
15655;SDS011;7928;43.614;1.456;2023-03-12T10:38:48;0.47;;;0.40;;
15655;SDS011;7928;43.614;1.456;2023-03-12T10:41:15;0.80;;;0.40;;
15655;SDS011;7928;43.614;1.456;2023-03-12T10:43:44;1.00;;;0.40;;
15655;SDS011;7928;43.614;1.456;2023-03-12T10:52:02;0.77;;;0.40;;
15655;SDS011;7928;43.614;1.456;2023-03-12T10:54:32;0.87;;;0.50;;
15655;SDS011;7928;43.614;1.456;2023-03-12T10:57:01;0.93;;;0.40;;
15655;SDS011;7928;43.614;1.456;2023-03-12T10:59:29;1.00;;;0.40;;
15655;SDS011;7928;43.614;1.456;2023-03-12T11:01:58;0.90;;;0.40;;
15655;SDS011;7928;43.614;1.456;2023-03-12T11:04:27;0.67;;;0.40;;
15655;SDS011;7928;43.614;1.456;2023-03-12T11:07:05;0.70;;;0.40;;
15655;SDS011;7928;43.614;1.456;2023-03-12T11:09:44;1.33;;;0.50;;
15655;SDS011;7928;43.614;1.456;2023-03-12T11:12:24;0.50;;;0.30;;
15655;SDS011;7928;43.614;1.456;2023-03-12T11:14:52;0.50;;;0.30;;
15655;SDS011;7928;43.614;1.456;2023-03-12T11:17:20;1.20;;;0.40;;
15655;SDS011;7928;43.614;1.456;2023-03-12T11:19:48;0.87;;;0.40;;
15655;SDS011;7928;43.614;1.456;2023-03-12T11:22:27;0.93;;;0.30;;
15655;SDS011;7928;43.614;1.456;2023-03-12T11:24:57;2.13;;;0.40;;
15655;SDS011;7928;43.614;1.456;2023-03-12T11:27:30;0.83;;;0.50;;
15655;SDS011;7928;43.614;1.456;2023-03-12T11:30:04;0.73;;;0.50;;
15655;SDS011;7928;43.614;1.456;2023-03-12T11:32:33;0.60;;;0.30;;
15655;SDS011;7928;43.614;1.456;2023-03-12T11:35:07;0.70;;;0.30;;
15655;SDS011;7928;43.614;1.456;2023-03-12T11:37:40;1.07;;;0.27;;
15655;SDS011;7928;43.614;1.456;2023-03-12T11:40:16;0.30;;;0.20;;
15655;SDS011;7928;43.614;1.456;2023-03-12T11:42:58;0.40;;;0.27;;
15655;SDS011;7928;43.614;1.456;2023-03-12T11:45:39;0.40;;;0.40;;
15655;SDS011;7928;43.614;1.456;2023-03-12T11:48:18;0.77;;;0.60;;
15655;SDS011;7928;43.614;1.456;2023-03-12T11:50:53;0.80;;;0.40;;
15655;SDS011;7928;43.614;1.456;2023-03-12T11:53:35;0.60;;;0.30;;
15655;SDS011;7928;43.614;1.456;2023-03-12T11:56:23;0.50;;;0.20;;
15655;SDS011;7928;43.614;1.456;2023-03-12T11:58:59;0.90;;;0.30;;
15655;SDS011;7928;43.614;1.456;2023-03-12T12:01:38;1.33;;;0.40;;
15655;SDS011;7928;43.614;1.456;2023-03-12T12:04:27;0.33;;;0.30;;
15655;SDS011;7928;43.614;1.456;2023-03-12T12:07:16;2.20;;;1.17;;
15655;SDS011;7928;43.614;1.456;2023-03-12T12:09:55;0.40;;;0.30;;
15655;SDS011;7928;43.614;1.456;2023-03-12T12:12:36;0.90;;;0.30;;
15655;SDS011;7928;43.614;1.456;2023-03-12T12:15:16;0.83;;;0.20;;
15655;SDS011;7928;43.614;1.456;2023-03-12T12:17:52;0.20;;;0.20;;
15655;SDS011;7928;43.614;1.456;2023-03-12T12:20:29;0.50;;;0.30;;
15655;SDS011;7928;43.614;1.456;2023-03-12T12:23:07;0.67;;;0.50;;
15655;SDS011;7928;43.614;1.456;2023-03-12T12:31:32;0.40;;;0.20;;
15655;SDS011;7928;43.614;1.456;2023-03-12T12:37:29;0.50;;;0.30;;
15655;SDS011;7928;43.614;1.456;2023-03-12T12:40:06;0.20;;;0.10;;
15655;SDS011;7928;43.614;1.456;2023-03-12T12:42:47;0.40;;;0.20;;
15655;SDS011;7928;43.614;1.456;2023-03-12T12:45:22;0.87;;;0.20;;
15655;SDS011;7928;43.614;1.456;2023-03-12T12:48:02;0.63;;;0.30;;
15655;SDS011;7928;43.614;1.456;2023-03-12T12:50:40;0.40;;;0.30;;
15655;SDS011;7928;43.614;1.456;2023-03-12T12:53:13;0.28;;;0.20;;
15655;SDS011;7928;43.614;1.456;2023-03-12T12:55:48;0.70;;;0.30;;
15655;SDS011;7928;43.614;1.456;2023-03-12T12:58:25;0.30;;;0.20;;
15655;SDS011;7928;43.614;1.456;2023-03-12T13:01:12;0.60;;;0.40;;
15655;SDS011;7928;43.614;1.456;2023-03-12T13:03:40;0.17;;;0.10;;
15655;SDS011;7928;43.614;1.456;2023-03-12T13:06:08;0.60;;;0.30;;
15655;SDS011;7928;43.614;1.456;2023-03-12T13:11:38;0.73;;;0.28;;
15655;SDS011;7928;43.614;1.456;2023-03-12T13:14:15;0.73;;;0.30;;
15655;SDS011;7928;43.614;1.456;2023-03-12T13:16:46;0.77;;;0.30;;
15655;SDS011;7928;43.614;1.456;2023-03-12T13:19:21;1.33;;;0.40;;
15655;SDS011;7928;43.614;1.456;2023-03-12T13:22:01;2.55;;;0.30;;
15655;SDS011;7928;43.614;1.456;2023-03-12T13:24:34;0.50;;;0.40;;
15655;SDS011;7928;43.614;1.456;2023-03-12T13:27:12;1.25;;;0.50;;
15655;SDS011;7928;43.614;1.456;2023-03-12T13:29:44;0.98;;;0.30;;
15655;SDS011;7928;43.614;1.456;2023-03-12T13:33:02;0.82;;;0.40;;
15655;SDS011;7928;43.614;1.456;2023-03-12T13:35:32;1.08;;;0.30;;
15655;SDS011;7928;43.614;1.456;2023-03-12T13:38:03;0.32;;;0.32;;
15655;SDS011;7928;43.614;1.456;2023-03-12T13:43:40;0.70;;;0.30;;
15655;SDS011;7928;43.614;1.456;2023-03-12T13:46:37;1.08;;;0.30;;
15655;SDS011;7928;43.614;1.456;2023-03-12T13:49:09;0.65;;;0.28;;
15655;SDS011;7928;43.614;1.456;2023-03-12T13:51:42;0.63;;;0.30;;
15655;SDS011;7928;43.614;1.456;2023-03-12T13:54:15;0.80;;;0.30;;
15655;SDS011;7928;43.614;1.456;2023-03-12T13:56:45;0.63;;;0.40;;
15655;SDS011;7928;43.614;1.456;2023-03-12T13:59:22;0.70;;;0.40;;
15655;SDS011;7928;43.614;1.456;2023-03-12T14:01:55;0.90;;;0.22;;
15655;SDS011;7928;43.614;1.456;2023-03-12T14:04:28;0.80;;;0.40;;
15655;SDS011;7928;43.614;1.456;2023-03-12T14:07:02;0.82;;;0.30;;
15655;SDS011;7928;43.614;1.456;2023-03-12T14:09:54;0.55;;;0.30;;
15655;SDS011;7928;43.614;1.456;2023-03-12T14:12:31;1.52;;;0.40;;
15655;SDS011;7928;43.614;1.456;2023-03-12T14:15:04;1.05;;;0.30;;
15655;SDS011;7928;43.614;1.456;2023-03-12T14:17:42;1.00;;;0.30;;
15655;SDS011;7928;43.614;1.456;2023-03-12T14:20:10;0.43;;;0.28;;
15655;SDS011;7928;43.614;1.456;2023-03-12T14:22:42;0.55;;;0.20;;
15655;SDS011;7928;43.614;1.456;2023-03-12T14:25:12;0.50;;;0.30;;
15655;SDS011;7928;43.614;1.456;2023-03-12T14:27:42;0.77;;;0.30;;
15655;SDS011;7928;43.614;1.456;2023-03-12T14:30:11;0.80;;;0.25;;
15655;SDS011;7928;43.614;1.456;2023-03-12T14:32:46;2.08;;;1.20;;
15655;SDS011;7928;43.614;1.456;2023-03-12T14:35:18;1.02;;;0.50;;
15655;SDS011;7928;43.614;1.456;2023-03-12T14:37:50;1.30;;;0.63;;
15655;SDS011;7928;43.614;1.456;2023-03-12T14:40:22;0.93;;;0.40;;
15655;SDS011;7928;43.614;1.456;2023-03-12T14:42:58;0.40;;;0.30;;
15655;SDS011;7928;43.614;1.456;2023-03-12T14:45:25;0.82;;;0.40;;
15655;SDS011;7928;43.614;1.456;2023-03-12T14:47:55;1.05;;;0.50;;
15655;SDS011;7928;43.614;1.456;2023-03-12T14:50:24;0.43;;;0.30;;
15655;SDS011;7928;43.614;1.456;2023-03-12T14:52:53;0.60;;;0.40;;
15655;SDS011;7928;43.614;1.456;2023-03-12T14:55:21;0.47;;;0.30;;
15655;SDS011;7928;43.614;1.456;2023-03-12T14:58:01;0.28;;;0.22;;
15655;SDS011;7928;43.614;1.456;2023-03-12T15:00:29;0.40;;;0.30;;
15655;SDS011;7928;43.614;1.456;2023-03-12T15:02:58;0.52;;;0.25;;
15655;SDS011;7928;43.614;1.456;2023-03-12T15:05:30;1.98;;;0.40;;
15655;SDS011;7928;43.614;1.456;2023-03-12T15:08:00;0.88;;;0.40;;
15655;SDS011;7928;43.614;1.456;2023-03-12T15:10:29;0.63;;;0.35;;
15655;SDS011;7928;43.614;1.456;2023-03-12T15:12:58;0.93;;;0.35;;
15655;SDS011;7928;43.614;1.456;2023-03-12T15:15:28;0.50;;;0.43;;
15655;SDS011;7928;43.614;1.456;2023-03-12T15:18:02;1.02;;;0.40;;
15655;SDS011;7928;43.614;1.456;2023-03-12T15:20:31;1.10;;;0.30;;
15655;SDS011;7928;43.614;1.456;2023-03-12T15:22:59;1.00;;;0.40;;
15655;SDS011;7928;43.614;1.456;2023-03-12T15:25:27;3.58;;;2.60;;
15655;SDS011;7928;43.614;1.456;2023-03-12T15:28:03;1.08;;;0.70;;
15655;SDS011;7928;43.614;1.456;2023-03-12T15:30:32;0.82;;;0.50;;
15655;SDS011;7928;43.614;1.456;2023-03-12T15:33:06;2.13;;;0.93;;
15655;SDS011;7928;43.614;1.456;2023-03-12T15:35:35;0.70;;;0.50;;
15655;SDS011;7928;43.614;1.456;2023-03-12T15:38:04;0.68;;;0.38;;
15655;SDS011;7928;43.614;1.456;2023-03-12T15:40:31;0.70;;;0.50;;